sensor_id;sensor_type;location;lat;lon;timestamp;temperature;humidity
20744;DHT22;56303;52.160;-0.428;2022-09-01T00:02:18;15.20;99.90
20744;DHT22;56303;52.160;-0.428;2022-09-01T00:04:46;15.40;99.90
20744;DHT22;56303;52.160;-0.428;2022-09-01T00:07:13;15.50;99.90
20744;DHT22;56303;52.160;-0.428;2022-09-01T00:09:40;15.40;99.90
20744;DHT22;56303;52.160;-0.428;2022-09-01T00:12:08;15.30;99.90
20744;DHT22;56303;52.160;-0.428;2022-09-01T00:14:38;15.40;99.90
20744;DHT22;56303;52.160;-0.428;2022-09-01T00:17:09;15.40;99.90
20744;DHT22;56303;52.160;-0.428;2022-09-01T00:19:37;15.30;99.90
20744;DHT22;56303;52.160;-0.428;2022-09-01T00:25:28;15.30;99.90
20744;DHT22;56303;52.160;-0.428;2022-09-01T00:27:55;15.20;99.90
20744;DHT22;56303;52.160;-0.428;2022-09-01T00:30:25;15.40;99.90
20744;DHT22;56303;52.160;-0.428;2022-09-01T00:32:52;15.30;99.90
20744;DHT22;56303;52.160;-0.428;2022-09-01T00:35:19;15.20;99.90
20744;DHT22;56303;52.160;-0.428;2022-09-01T00:37:47;15.00;99.90
20744;DHT22;56303;52.160;-0.428;2022-09-01T00:40:15;15.00;99.90
20744;DHT22;56303;52.160;-0.428;2022-09-01T00:42:43;15.20;99.90
20744;DHT22;56303;52.160;-0.428;2022-09-01T00:45:10;15.10;99.90
20744;DHT22;56303;52.160;-0.428;2022-09-01T00:47:37;15.10;99.90
20744;DHT22;56303;52.160;-0.428;2022-09-01T00:50:06;15.00;99.90
20744;DHT22;56303;52.160;-0.428;2022-09-01T00:52:38;14.90;99.90
20744;DHT22;56303;52.160;-0.428;2022-09-01T00:55:23;15.10;99.90
20744;DHT22;56303;52.160;-0.428;2022-09-01T00:57:51;15.10;99.90
20744;DHT22;56303;52.160;-0.428;2022-09-01T01:00:22;15.10;99.90
20744;DHT22;56303;52.160;-0.428;2022-09-01T01:02:51;15.10;99.90
20744;DHT22;56303;52.160;-0.428;2022-09-01T01:05:24;15.00;99.90
20744;DHT22;56303;52.160;-0.428;2022-09-01T01:07:54;15.10;99.90
20744;DHT22;56303;52.160;-0.428;2022-09-01T01:10:22;15.20;99.90
20744;DHT22;56303;52.160;-0.428;2022-09-01T01:12:52;15.10;99.90
20744;DHT22;56303;52.160;-0.428;2022-09-01T01:15:19;15.10;99.90
20744;DHT22;56303;52.160;-0.428;2022-09-01T01:17:46;15.10;99.90
20744;DHT22;56303;52.160;-0.428;2022-09-01T01:20:14;15.20;99.90
20744;DHT22;56303;52.160;-0.428;2022-09-01T01:25:55;15.30;99.90
20744;DHT22;56303;52.160;-0.428;2022-09-01T01:30:59;15.30;99.90
20744;DHT22;56303;52.160;-0.428;2022-09-01T01:36:11;15.30;99.90
20744;DHT22;56303;52.160;-0.428;2022-09-01T01:38:40;15.10;99.90
20744;DHT22;56303;52.160;-0.428;2022-09-01T01:41:10;15.20;99.90
20744;DHT22;56303;52.160;-0.428;2022-09-01T01:43:37;15.20;99.90
20744;DHT22;56303;52.160;-0.428;2022-09-01T01:46:06;15.10;99.90
20744;DHT22;56303;52.160;-0.428;2022-09-01T01:48:39;15.10;99.90
20744;DHT22;56303;52.160;-0.428;2022-09-01T01:51:07;15.00;99.90
20744;DHT22;56303;52.160;-0.428;2022-09-01T01:53:36;15.00;99.90
20744;DHT22;56303;52.160;-0.428;2022-09-01T01:56:04;15.10;99.90
20744;DHT22;56303;52.160;-0.428;2022-09-01T01:58:32;15.10;99.90
20744;DHT22;56303;52.160;-0.428;2022-09-01T02:01:00;15.00;99.90
20744;DHT22;56303;52.160;-0.428;2022-09-01T02:03:32;14.90;99.90
20744;DHT22;56303;52.160;-0.428;2022-09-01T02:06:06;14.90;99.90
20744;DHT22;56303;52.160;-0.428;2022-09-01T02:08:36;14.90;99.90
20744;DHT22;56303;52.160;-0.428;2022-09-01T02:11:05;14.90;99.90
20744;DHT22;56303;52.160;-0.428;2022-09-01T02:13:33;15.10;99.90
20744;DHT22;56303;52.160;-0.428;2022-09-01T02:16:06;15.10;99.90
20744;DHT22;56303;52.160;-0.428;2022-09-01T02:18:39;15.00;99.90
20744;DHT22;56303;52.160;-0.428;2022-09-01T02:21:09;15.20;99.90
20744;DHT22;56303;52.160;-0.428;2022-09-01T02:23:46;15.20;99.90
20744;DHT22;56303;52.160;-0.428;2022-09-01T02:26:14;15.20;99.90
20744;DHT22;56303;52.160;-0.428;2022-09-01T02:28:45;15.30;99.90
20744;DHT22;56303;52.160;-0.428;2022-09-01T02:31:22;15.40;99.90
20744;DHT22;56303;52.160;-0.428;2022-09-01T02:33:49;15.40;99.90
20744;DHT22;56303;52.160;-0.428;2022-09-01T02:36:17;15.60;99.90
20744;DHT22;56303;52.160;-0.428;2022-09-01T02:38:46;15.60;99.90
20744;DHT22;56303;52.160;-0.428;2022-09-01T02:41:20;15.60;99.90
20744;DHT22;56303;52.160;-0.428;2022-09-01T02:43:51;15.50;99.90
20744;DHT22;56303;52.160;-0.428;2022-09-01T02:46:18;15.60;99.90
20744;DHT22;56303;52.160;-0.428;2022-09-01T02:48:50;15.70;99.90
20744;DHT22;56303;52.160;-0.428;2022-09-01T02:51:19;15.70;99.90
20744;DHT22;56303;52.160;-0.428;2022-09-01T02:53:48;15.70;99.90
20744;DHT22;56303;52.160;-0.428;2022-09-01T02:56:17;15.70;99.90
20744;DHT22;56303;52.160;-0.428;2022-09-01T02:58:45;15.60;99.90
20744;DHT22;56303;52.160;-0.428;2022-09-01T03:01:18;15.60;99.90
20744;DHT22;56303;52.160;-0.428;2022-09-01T03:03:50;15.60;99.90
20744;DHT22;56303;52.160;-0.428;2022-09-01T03:06:18;15.70;99.90
20744;DHT22;56303;52.160;-0.428;2022-09-01T03:08:47;15.70;99.90
20744;DHT22;56303;52.160;-0.428;2022-09-01T03:11:14;15.70;99.90
20744;DHT22;56303;52.160;-0.428;2022-09-01T03:13:41;15.60;99.90
20744;DHT22;56303;52.160;-0.428;2022-09-01T03:16:09;15.60;99.90
20744;DHT22;56303;52.160;-0.428;2022-09-01T03:18:37;15.60;99.90
20744;DHT22;56303;52.160;-0.428;2022-09-01T03:21:06;15.50;99.90
20744;DHT22;56303;52.160;-0.428;2022-09-01T03:23:34;15.50;99.90
20744;DHT22;56303;52.160;-0.428;2022-09-01T03:26:01;15.70;99.90
20744;DHT22;56303;52.160;-0.428;2022-09-01T03:28:28;15.70;99.90
20744;DHT22;56303;52.160;-0.428;2022-09-01T03:30:56;15.90;99.90
20744;DHT22;56303;52.160;-0.428;2022-09-01T03:33:25;15.80;99.90
20744;DHT22;56303;52.160;-0.428;2022-09-01T03:35:54;15.90;99.90
20744;DHT22;56303;52.160;-0.428;2022-09-01T03:38:22;15.90;99.90
20744;DHT22;56303;52.160;-0.428;2022-09-01T03:40:53;15.90;99.90
20744;DHT22;56303;52.160;-0.428;2022-09-01T03:43:20;15.80;99.90
20744;DHT22;56303;52.160;-0.428;2022-09-01T03:45:50;15.80;99.90
20744;DHT22;56303;52.160;-0.428;2022-09-01T03:48:17;15.70;99.90
20744;DHT22;56303;52.160;-0.428;2022-09-01T03:50:45;15.70;99.90
20744;DHT22;56303;52.160;-0.428;2022-09-01T03:53:15;15.90;99.90
20744;DHT22;56303;52.160;-0.428;2022-09-01T03:55:44;15.90;99.90
20744;DHT22;56303;52.160;-0.428;2022-09-01T03:58:13;16.10;99.90
20744;DHT22;56303;52.160;-0.428;2022-09-01T04:00:47;15.90;99.90
20744;DHT22;56303;52.160;-0.428;2022-09-01T04:03:16;15.80;99.90
20744;DHT22;56303;52.160;-0.428;2022-09-01T04:05:55;15.70;99.90
20744;DHT22;56303;52.160;-0.428;2022-09-01T04:08:22;15.70;99.90
20744;DHT22;56303;52.160;-0.428;2022-09-01T04:11:09;15.90;99.90
20744;DHT22;56303;52.160;-0.428;2022-09-01T04:13:38;15.80;99.90
20744;DHT22;56303;52.160;-0.428;2022-09-01T04:16:06;15.70;99.90
20744;DHT22;56303;52.160;-0.428;2022-09-01T04:18:36;15.60;99.90
20744;DHT22;56303;52.160;-0.428;2022-09-01T04:21:05;15.60;99.90
20744;DHT22;56303;52.160;-0.428;2022-09-01T04:23:36;15.50;99.90
20744;DHT22;56303;52.160;-0.428;2022-09-01T04:26:06;15.70;99.90
20744;DHT22;56303;52.160;-0.428;2022-09-01T04:28:39;15.70;99.90
20744;DHT22;56303;52.160;-0.428;2022-09-01T04:31:11;15.80;99.90
20744;DHT22;56303;52.160;-0.428;2022-09-01T04:33:40;15.80;99.90
20744;DHT22;56303;52.160;-0.428;2022-09-01T04:36:25;15.90;99.90
20744;DHT22;56303;52.160;-0.428;2022-09-01T04:38:58;16.00;99.90
20744;DHT22;56303;52.160;-0.428;2022-09-01T04:41:31;15.90;99.90
20744;DHT22;56303;52.160;-0.428;2022-09-01T04:44:00;15.80;99.90
20744;DHT22;56303;52.160;-0.428;2022-09-01T04:46:33;15.90;99.90
20744;DHT22;56303;52.160;-0.428;2022-09-01T04:49:05;15.90;99.90
20744;DHT22;56303;52.160;-0.428;2022-09-01T04:51:45;15.90;99.90
20744;DHT22;56303;52.160;-0.428;2022-09-01T04:54:19;15.90;99.90
20744;DHT22;56303;52.160;-0.428;2022-09-01T04:56:49;15.80;99.90
20744;DHT22;56303;52.160;-0.428;2022-09-01T04:59:19;15.80;99.90
20744;DHT22;56303;52.160;-0.428;2022-09-01T05:01:48;15.90;99.90
20744;DHT22;56303;52.160;-0.428;2022-09-01T05:04:21;16.00;99.90
20744;DHT22;56303;52.160;-0.428;2022-09-01T05:06:51;16.10;99.90
20744;DHT22;56303;52.160;-0.428;2022-09-01T05:09:22;16.10;99.90
20744;DHT22;56303;52.160;-0.428;2022-09-01T05:11:51;16.10;99.90
20744;DHT22;56303;52.160;-0.428;2022-09-01T05:14:19;16.10;99.90
20744;DHT22;56303;52.160;-0.428;2022-09-01T05:16:47;16.00;99.90
20744;DHT22;56303;52.160;-0.428;2022-09-01T05:19:15;16.00;99.90
20744;DHT22;56303;52.160;-0.428;2022-09-01T05:21:45;16.00;99.90
20744;DHT22;56303;52.160;-0.428;2022-09-01T05:24:14;16.00;99.90
20744;DHT22;56303;52.160;-0.428;2022-09-01T05:26:42;15.90;99.90
20744;DHT22;56303;52.160;-0.428;2022-09-01T05:29:09;16.00;99.90
20744;DHT22;56303;52.160;-0.428;2022-09-01T05:31:40;16.10;99.90
20744;DHT22;56303;52.160;-0.428;2022-09-01T05:34:08;16.00;99.90
20744;DHT22;56303;52.160;-0.428;2022-09-01T05:36:44;16.00;99.90
20744;DHT22;56303;52.160;-0.428;2022-09-01T05:39:11;16.10;99.90
20744;DHT22;56303;52.160;-0.428;2022-09-01T05:41:39;16.10;99.90
20744;DHT22;56303;52.160;-0.428;2022-09-01T05:44:07;16.30;99.90
20744;DHT22;56303;52.160;-0.428;2022-09-01T05:46:36;16.20;99.90
20744;DHT22;56303;52.160;-0.428;2022-09-01T05:49:05;16.30;99.90
20744;DHT22;56303;52.160;-0.428;2022-09-01T05:51:42;16.20;99.90
20744;DHT22;56303;52.160;-0.428;2022-09-01T05:54:18;16.30;99.90
20744;DHT22;56303;52.160;-0.428;2022-09-01T05:56:46;16.40;99.90
20744;DHT22;56303;52.160;-0.428;2022-09-01T05:59:14;16.30;99.90
20744;DHT22;56303;52.160;-0.428;2022-09-01T06:01:51;16.40;99.90
20744;DHT22;56303;52.160;-0.428;2022-09-01T06:04:19;16.40;99.90
20744;DHT22;56303;52.160;-0.428;2022-09-01T06:06:47;16.50;99.90
20744;DHT22;56303;52.160;-0.428;2022-09-01T06:09:36;16.60;99.90
20744;DHT22;56303;52.160;-0.428;2022-09-01T06:12:04;16.50;99.90
20744;DHT22;56303;52.160;-0.428;2022-09-01T06:14:31;16.60;99.90
20744;DHT22;56303;52.160;-0.428;2022-09-01T06:16:58;16.70;99.90
20744;DHT22;56303;52.160;-0.428;2022-09-01T06:19:26;16.60;99.90
20744;DHT22;56303;52.160;-0.428;2022-09-01T06:21:53;16.80;99.90
20744;DHT22;56303;52.160;-0.428;2022-09-01T06:24:21;16.80;99.90
20744;DHT22;56303;52.160;-0.428;2022-09-01T06:26:49;16.90;99.90
20744;DHT22;56303;52.160;-0.428;2022-09-01T06:29:16;16.90;99.90
20744;DHT22;56303;52.160;-0.428;2022-09-01T06:31:44;17.00;99.90
20744;DHT22;56303;52.160;-0.428;2022-09-01T06:34:13;17.10;99.90
20744;DHT22;56303;52.160;-0.428;2022-09-01T06:36:44;17.10;99.90
20744;DHT22;56303;52.160;-0.428;2022-09-01T06:39:12;17.20;99.90
20744;DHT22;56303;52.160;-0.428;2022-09-01T06:41:49;17.10;99.90
20744;DHT22;56303;52.160;-0.428;2022-09-01T06:44:20;17.00;99.90
20744;DHT22;56303;52.160;-0.428;2022-09-01T06:46:50;17.30;99.90
20744;DHT22;56303;52.160;-0.428;2022-09-01T06:49:19;17.30;99.90
20744;DHT22;56303;52.160;-0.428;2022-09-01T06:51:47;17.40;99.90
20744;DHT22;56303;52.160;-0.428;2022-09-01T06:54:15;17.50;99.90
20744;DHT22;56303;52.160;-0.428;2022-09-01T06:57:03;17.30;99.90
20744;DHT22;56303;52.160;-0.428;2022-09-01T06:59:50;17.50;99.90
20744;DHT22;56303;52.160;-0.428;2022-09-01T07:02:18;17.80;99.90
20744;DHT22;56303;52.160;-0.428;2022-09-01T07:04:53;17.80;99.90
20744;DHT22;56303;52.160;-0.428;2022-09-01T07:07:20;17.90;99.90
20744;DHT22;56303;52.160;-0.428;2022-09-01T07:10:08;18.00;99.90
20744;DHT22;56303;52.160;-0.428;2022-09-01T07:12:54;18.10;99.90
20744;DHT22;56303;52.160;-0.428;2022-09-01T07:15:41;18.00;99.90
20744;DHT22;56303;52.160;-0.428;2022-09-01T07:18:30;18.00;99.90
20744;DHT22;56303;52.160;-0.428;2022-09-01T07:20:58;18.40;99.90
20744;DHT22;56303;52.160;-0.428;2022-09-01T07:23:46;18.20;99.90
20744;DHT22;56303;52.160;-0.428;2022-09-01T07:26:34;18.40;99.90
20744;DHT22;56303;52.160;-0.428;2022-09-01T07:29:04;18.30;99.90
20744;DHT22;56303;52.160;-0.428;2022-09-01T07:31:36;18.20;99.90
20744;DHT22;56303;52.160;-0.428;2022-09-01T07:34:26;18.40;99.90
20744;DHT22;56303;52.160;-0.428;2022-09-01T07:37:13;18.30;99.90
20744;DHT22;56303;52.160;-0.428;2022-09-01T07:40:00;18.30;99.90
20744;DHT22;56303;52.160;-0.428;2022-09-01T07:42:53;18.30;99.90
20744;DHT22;56303;52.160;-0.428;2022-09-01T07:45:28;18.50;99.90
20744;DHT22;56303;52.160;-0.428;2022-09-01T07:47:56;18.50;99.90
20744;DHT22;56303;52.160;-0.428;2022-09-01T07:50:29;18.70;99.90
20744;DHT22;56303;52.160;-0.428;2022-09-01T07:53:21;18.80;99.90
20744;DHT22;56303;52.160;-0.428;2022-09-01T07:55:50;18.70;99.90
20744;DHT22;56303;52.160;-0.428;2022-09-01T07:58:19;18.70;99.90
20744;DHT22;56303;52.160;-0.428;2022-09-01T08:00:48;18.80;99.90
20744;DHT22;56303;52.160;-0.428;2022-09-01T08:03:17;18.80;99.90
20744;DHT22;56303;52.160;-0.428;2022-09-01T08:05:45;18.90;99.90
20744;DHT22;56303;52.160;-0.428;2022-09-01T08:08:14;18.70;99.90
20744;DHT22;56303;52.160;-0.428;2022-09-01T08:10:45;18.70;99.90
20744;DHT22;56303;52.160;-0.428;2022-09-01T08:13:15;18.90;99.90
20744;DHT22;56303;52.160;-0.428;2022-09-01T08:15:45;18.80;99.90
20744;DHT22;56303;52.160;-0.428;2022-09-01T08:18:32;19.10;99.90
20744;DHT22;56303;52.160;-0.428;2022-09-01T08:21:15;19.20;99.90
20744;DHT22;56303;52.160;-0.428;2022-09-01T08:23:42;19.50;99.90
20744;DHT22;56303;52.160;-0.428;2022-09-01T08:26:13;19.40;99.90
20744;DHT22;56303;52.160;-0.428;2022-09-01T08:28:41;19.50;99.90
20744;DHT22;56303;52.160;-0.428;2022-09-01T08:31:14;19.50;99.90
20744;DHT22;56303;52.160;-0.428;2022-09-01T08:33:44;19.60;99.90
20744;DHT22;56303;52.160;-0.428;2022-09-01T08:36:13;19.60;99.90
20744;DHT22;56303;52.160;-0.428;2022-09-01T08:38:47;19.60;99.90
20744;DHT22;56303;52.160;-0.428;2022-09-01T08:41:29;19.90;99.90
20744;DHT22;56303;52.160;-0.428;2022-09-01T08:44:31;19.90;99.90
20744;DHT22;56303;52.160;-0.428;2022-09-01T08:47:08;20.20;99.90
20744;DHT22;56303;52.160;-0.428;2022-09-01T08:49:41;20.00;99.90
20744;DHT22;56303;52.160;-0.428;2022-09-01T08:54:59;19.70;99.90
20744;DHT22;56303;52.160;-0.428;2022-09-01T08:57:38;19.50;99.90
20744;DHT22;56303;52.160;-0.428;2022-09-01T09:00:07;19.70;99.90
20744;DHT22;56303;52.160;-0.428;2022-09-01T09:02:39;19.90;99.90
20744;DHT22;56303;52.160;-0.428;2022-09-01T09:10:46;20.90;99.90
20744;DHT22;56303;52.160;-0.428;2022-09-01T09:16:09;20.70;99.90
20744;DHT22;56303;52.160;-0.428;2022-09-01T09:18:53;20.60;99.90
20744;DHT22;56303;52.160;-0.428;2022-09-01T09:21:42;20.50;99.90
20744;DHT22;56303;52.160;-0.428;2022-09-01T09:27:33;20.80;99.90
20744;DHT22;56303;52.160;-0.428;2022-09-01T09:30:14;20.90;99.90
20744;DHT22;56303;52.160;-0.428;2022-09-01T09:35:49;21.30;99.90
20744;DHT22;56303;52.160;-0.428;2022-09-01T09:38:21;21.40;99.90
20744;DHT22;56303;52.160;-0.428;2022-09-01T09:44:02;21.20;99.90
20744;DHT22;56303;52.160;-0.428;2022-09-01T09:54:31;22.00;99.90
20744;DHT22;56303;52.160;-0.428;2022-09-01T09:59:37;21.90;99.90
20744;DHT22;56303;52.160;-0.428;2022-09-01T10:07:49;22.40;99.90
20744;DHT22;56303;52.160;-0.428;2022-09-01T10:12:58;23.50;99.90
20744;DHT22;56303;52.160;-0.428;2022-09-01T10:15:30;23.70;99.90
20744;DHT22;56303;52.160;-0.428;2022-09-01T10:18:08;23.90;99.90
20744;DHT22;56303;52.160;-0.428;2022-09-01T10:21:16;24.00;99.90
20744;DHT22;56303;52.160;-0.428;2022-09-01T10:23:49;24.10;99.90
20744;DHT22;56303;52.160;-0.428;2022-09-01T10:26:29;24.30;99.90
20744;DHT22;56303;52.160;-0.428;2022-09-01T10:29:14;24.50;99.90
20744;DHT22;56303;52.160;-0.428;2022-09-01T10:31:42;24.40;99.90
20744;DHT22;56303;52.160;-0.428;2022-09-01T10:34:13;24.20;99.90
20744;DHT22;56303;52.160;-0.428;2022-09-01T10:36:46;23.90;99.90
20744;DHT22;56303;52.160;-0.428;2022-09-01T10:39:22;24.00;99.90
20744;DHT22;56303;52.160;-0.428;2022-09-01T10:42:00;24.60;99.90
20744;DHT22;56303;52.160;-0.428;2022-09-01T10:44:36;24.70;99.90
20744;DHT22;56303;52.160;-0.428;2022-09-01T10:47:24;24.50;99.90
20744;DHT22;56303;52.160;-0.428;2022-09-01T10:55:58;24.90;99.90
20744;DHT22;56303;52.160;-0.428;2022-09-01T11:10:32;24.70;99.90
20744;DHT22;56303;52.160;-0.428;2022-09-01T11:15:52;25.10;99.90
20744;DHT22;56303;52.160;-0.428;2022-09-01T11:18:28;25.50;99.90
20744;DHT22;56303;52.160;-0.428;2022-09-01T11:21:15;25.80;99.90
20744;DHT22;56303;52.160;-0.428;2022-09-01T11:23:44;25.90;99.90
20744;DHT22;56303;52.160;-0.428;2022-09-01T11:29:01;25.50;99.50
20744;DHT22;56303;52.160;-0.428;2022-09-01T11:31:31;25.50;99.70
20744;DHT22;56303;52.160;-0.428;2022-09-01T11:36:35;25.40;99.70
20744;DHT22;56303;52.160;-0.428;2022-09-01T11:44:50;26.20;98.40
20744;DHT22;56303;52.160;-0.428;2022-09-01T11:50:00;26.80;98.10
20744;DHT22;56303;52.160;-0.428;2022-09-01T11:52:30;27.00;97.60
20744;DHT22;56303;52.160;-0.428;2022-09-01T11:54:58;27.10;96.40
20744;DHT22;56303;52.160;-0.428;2022-09-01T11:57:36;27.00;97.30
20744;DHT22;56303;52.160;-0.428;2022-09-01T12:00:06;27.10;97.90
20744;DHT22;56303;52.160;-0.428;2022-09-01T12:02:35;27.00;98.00
20744;DHT22;56303;52.160;-0.428;2022-09-01T12:05:24;26.40;97.80
20744;DHT22;56303;52.160;-0.428;2022-09-01T12:07:52;26.70;97.40
20744;DHT22;56303;52.160;-0.428;2022-09-01T12:10:36;26.80;96.30
20744;DHT22;56303;52.160;-0.428;2022-09-01T12:13:09;26.50;95.70
20744;DHT22;56303;52.160;-0.428;2022-09-01T12:15:39;26.90;96.20
20744;DHT22;56303;52.160;-0.428;2022-09-01T12:18:43;27.20;96.10
20744;DHT22;56303;52.160;-0.428;2022-09-01T12:21:21;27.20;95.90
20744;DHT22;56303;52.160;-0.428;2022-09-01T12:23:49;27.20;96.10
20744;DHT22;56303;52.160;-0.428;2022-09-01T12:26:28;27.80;95.70
20744;DHT22;56303;52.160;-0.428;2022-09-01T12:28:56;27.60;95.70
20744;DHT22;56303;52.160;-0.428;2022-09-01T12:31:24;27.70;95.10
20744;DHT22;56303;52.160;-0.428;2022-09-01T12:33:53;27.80;94.90
20744;DHT22;56303;52.160;-0.428;2022-09-01T12:38:47;27.60;95.10
20744;DHT22;56303;52.160;-0.428;2022-09-01T12:41:36;26.90;95.70
20744;DHT22;56303;52.160;-0.428;2022-09-01T12:47:09;26.40;96.10
20744;DHT22;56303;52.160;-0.428;2022-09-01T12:49:47;27.10;95.70
20744;DHT22;56303;52.160;-0.428;2022-09-01T12:57:40;28.30;92.70
20744;DHT22;56303;52.160;-0.428;2022-09-01T13:00:21;28.90;94.10
20744;DHT22;56303;52.160;-0.428;2022-09-01T13:02:51;29.20;92.20
20744;DHT22;56303;52.160;-0.428;2022-09-01T13:05:35;29.00;92.80
20744;DHT22;56303;52.160;-0.428;2022-09-01T13:08:13;28.80;92.00
20744;DHT22;56303;52.160;-0.428;2022-09-01T13:10:41;28.60;92.00
20744;DHT22;56303;52.160;-0.428;2022-09-01T13:13:10;28.20;92.60
20744;DHT22;56303;52.160;-0.428;2022-09-01T13:15:41;28.80;92.10
20744;DHT22;56303;52.160;-0.428;2022-09-01T13:18:08;29.30;90.60
20744;DHT22;56303;52.160;-0.428;2022-09-01T13:20:37;29.10;90.60
20744;DHT22;56303;52.160;-0.428;2022-09-01T13:23:04;29.30;90.70
20744;DHT22;56303;52.160;-0.428;2022-09-01T13:25:30;29.60;90.40
20744;DHT22;56303;52.160;-0.428;2022-09-01T13:27:57;30.30;90.00
20744;DHT22;56303;52.160;-0.428;2022-09-01T13:30:25;30.30;86.40
20744;DHT22;56303;52.160;-0.428;2022-09-01T13:32:54;30.10;84.30
20744;DHT22;56303;52.160;-0.428;2022-09-01T13:35:42;30.30;84.60
20744;DHT22;56303;52.160;-0.428;2022-09-01T13:38:09;30.10;83.40
20744;DHT22;56303;52.160;-0.428;2022-09-01T13:40:36;30.00;83.80
20744;DHT22;56303;52.160;-0.428;2022-09-01T13:43:03;29.90;84.10
20744;DHT22;56303;52.160;-0.428;2022-09-01T13:45:31;29.60;82.70
20744;DHT22;56303;52.160;-0.428;2022-09-01T13:47:59;28.90;83.70
20744;DHT22;56303;52.160;-0.428;2022-09-01T13:50:47;28.30;86.60
20744;DHT22;56303;52.160;-0.428;2022-09-01T13:53:38;27.70;85.30
20744;DHT22;56303;52.160;-0.428;2022-09-01T13:56:05;27.90;88.30
20744;DHT22;56303;52.160;-0.428;2022-09-01T13:58:32;28.20;87.60
20744;DHT22;56303;52.160;-0.428;2022-09-01T14:00:59;28.20;87.30
20744;DHT22;56303;52.160;-0.428;2022-09-01T14:03:26;28.00;88.30
20744;DHT22;56303;52.160;-0.428;2022-09-01T14:05:53;27.80;90.10
20744;DHT22;56303;52.160;-0.428;2022-09-01T14:08:21;27.60;89.40
20744;DHT22;56303;52.160;-0.428;2022-09-01T14:10:50;27.60;89.00
20744;DHT22;56303;52.160;-0.428;2022-09-01T14:13:22;27.50;89.30
20744;DHT22;56303;52.160;-0.428;2022-09-01T14:15:50;27.70;86.90
20744;DHT22;56303;52.160;-0.428;2022-09-01T14:18:18;27.10;88.40
20744;DHT22;56303;52.160;-0.428;2022-09-01T14:20:47;26.40;90.00
20744;DHT22;56303;52.160;-0.428;2022-09-01T14:23:17;26.00;90.80
20744;DHT22;56303;52.160;-0.428;2022-09-01T14:25:48;26.10;90.20
20744;DHT22;56303;52.160;-0.428;2022-09-01T14:28:15;25.80;90.90
20744;DHT22;56303;52.160;-0.428;2022-09-01T14:30:47;25.60;91.40
20744;DHT22;56303;52.160;-0.428;2022-09-01T14:33:15;25.80;91.20
20744;DHT22;56303;52.160;-0.428;2022-09-01T14:35:44;26.00;90.60
20744;DHT22;56303;52.160;-0.428;2022-09-01T14:38:12;26.30;90.70
20744;DHT22;56303;52.160;-0.428;2022-09-01T14:40:42;26.00;90.70
20744;DHT22;56303;52.160;-0.428;2022-09-01T14:43:10;25.70;90.80
20744;DHT22;56303;52.160;-0.428;2022-09-01T14:45:41;25.40;91.20
20744;DHT22;56303;52.160;-0.428;2022-09-01T14:48:12;25.00;91.40
20744;DHT22;56303;52.160;-0.428;2022-09-01T14:50:42;25.20;91.70
20744;DHT22;56303;52.160;-0.428;2022-09-01T14:53:10;25.40;91.80
20744;DHT22;56303;52.160;-0.428;2022-09-01T14:55:38;25.60;92.30
20744;DHT22;56303;52.160;-0.428;2022-09-01T14:58:09;25.40;91.70
20744;DHT22;56303;52.160;-0.428;2022-09-01T15:00:36;25.30;91.70
20744;DHT22;56303;52.160;-0.428;2022-09-01T15:03:04;25.20;91.90
20744;DHT22;56303;52.160;-0.428;2022-09-01T15:05:32;25.20;92.40
20744;DHT22;56303;52.160;-0.428;2022-09-01T15:08:06;25.20;92.30
20744;DHT22;56303;52.160;-0.428;2022-09-01T15:10:33;25.30;92.20
20744;DHT22;56303;52.160;-0.428;2022-09-01T15:13:01;25.50;92.10
20744;DHT22;56303;52.160;-0.428;2022-09-01T15:15:29;25.30;92.40
20744;DHT22;56303;52.160;-0.428;2022-09-01T15:17:57;25.30;92.30
20744;DHT22;56303;52.160;-0.428;2022-09-01T15:20:25;25.30;92.60
20744;DHT22;56303;52.160;-0.428;2022-09-01T15:23:16;25.40;92.10
20744;DHT22;56303;52.160;-0.428;2022-09-01T15:25:44;25.10;92.00
20744;DHT22;56303;52.160;-0.428;2022-09-01T15:28:11;25.30;92.10
20744;DHT22;56303;52.160;-0.428;2022-09-01T15:30:39;25.40;91.80
20744;DHT22;56303;52.160;-0.428;2022-09-01T15:33:07;25.40;91.70
20744;DHT22;56303;52.160;-0.428;2022-09-01T15:35:40;25.30;91.70
20744;DHT22;56303;52.160;-0.428;2022-09-01T15:38:07;25.70;92.50
20744;DHT22;56303;52.160;-0.428;2022-09-01T15:40:41;26.00;91.80
20744;DHT22;56303;52.160;-0.428;2022-09-01T15:43:08;26.20;91.70
20744;DHT22;56303;52.160;-0.428;2022-09-01T15:45:37;26.00;91.00
20744;DHT22;56303;52.160;-0.428;2022-09-01T15:48:04;25.60;91.80
20744;DHT22;56303;52.160;-0.428;2022-09-01T15:50:31;25.60;91.70
20744;DHT22;56303;52.160;-0.428;2022-09-01T15:53:00;25.30;92.00
20744;DHT22;56303;52.160;-0.428;2022-09-01T15:55:30;25.10;92.30
20744;DHT22;56303;52.160;-0.428;2022-09-01T15:58:02;25.50;92.60
20744;DHT22;56303;52.160;-0.428;2022-09-01T16:00:29;25.30;92.30
20744;DHT22;56303;52.160;-0.428;2022-09-01T16:02:56;24.80;93.10
20744;DHT22;56303;52.160;-0.428;2022-09-01T16:05:32;24.90;93.30
20744;DHT22;56303;52.160;-0.428;2022-09-01T16:07:59;25.00;93.60
20744;DHT22;56303;52.160;-0.428;2022-09-01T16:10:28;25.10;93.50
20744;DHT22;56303;52.160;-0.428;2022-09-01T16:13:00;25.10;93.60
20744;DHT22;56303;52.160;-0.428;2022-09-01T16:15:27;25.20;93.30
20744;DHT22;56303;52.160;-0.428;2022-09-01T16:18:25;25.20;93.60
20744;DHT22;56303;52.160;-0.428;2022-09-01T16:21:05;25.40;93.70
20744;DHT22;56303;52.160;-0.428;2022-09-01T16:23:44;25.30;93.70
20744;DHT22;56303;52.160;-0.428;2022-09-01T16:26:15;25.30;93.90
20744;DHT22;56303;52.160;-0.428;2022-09-01T16:28:49;25.30;94.70
20744;DHT22;56303;52.160;-0.428;2022-09-01T16:31:23;25.30;93.50
20744;DHT22;56303;52.160;-0.428;2022-09-01T16:33:53;25.30;94.30
20744;DHT22;56303;52.160;-0.428;2022-09-01T16:39:25;25.10;95.10
20744;DHT22;56303;52.160;-0.428;2022-09-01T16:45:04;25.00;94.90
20744;DHT22;56303;52.160;-0.428;2022-09-01T16:52:59;24.50;95.40
20744;DHT22;56303;52.160;-0.428;2022-09-01T16:55:46;24.20;95.80
20744;DHT22;56303;52.160;-0.428;2022-09-01T17:01:30;24.20;95.90
20744;DHT22;56303;52.160;-0.428;2022-09-01T17:09:33;24.20;96.30
20744;DHT22;56303;52.160;-0.428;2022-09-01T17:15:27;24.10;96.80
20744;DHT22;56303;52.160;-0.428;2022-09-01T17:20:53;24.10;97.20
20744;DHT22;56303;52.160;-0.428;2022-09-01T17:23:26;24.10;97.40
20744;DHT22;56303;52.160;-0.428;2022-09-01T17:26:00;24.10;97.60
20744;DHT22;56303;52.160;-0.428;2022-09-01T17:28:37;23.90;98.00
20744;DHT22;56303;52.160;-0.428;2022-09-01T17:31:31;24.10;98.30
20744;DHT22;56303;52.160;-0.428;2022-09-01T17:36:58;23.90;98.80
20744;DHT22;56303;52.160;-0.428;2022-09-01T17:39:40;24.00;98.90
20744;DHT22;56303;52.160;-0.428;2022-09-01T17:42:35;23.90;99.20
20744;DHT22;56303;52.160;-0.428;2022-09-01T17:45:08;24.00;99.20
20744;DHT22;56303;52.160;-0.428;2022-09-01T17:48:06;24.10;99.50
20744;DHT22;56303;52.160;-0.428;2022-09-01T17:56:26;23.70;99.90
20744;DHT22;56303;52.160;-0.428;2022-09-01T17:59:02;23.70;99.90